createdAt,value
2022-11-22T00:00:08.263Z,5.32
2022-11-22T00:01:08.417Z,5.33
2022-11-22T00:02:08.260Z,5.36
2022-11-22T00:03:08.161Z,5.35
2022-11-22T00:04:08.393Z,5.36
2022-11-22T00:05:08.172Z,5.36
2022-11-22T00:06:08.124Z,5.38
2022-11-22T00:07:08.159Z,5.38
2022-11-22T00:08:08.101Z,5.39
2022-11-22T00:09:08.317Z,5.41
2022-11-22T00:10:08.095Z,5.41
2022-11-22T00:11:08.084Z,5.44
2022-11-22T00:12:08.077Z,5.47
2022-11-22T00:13:08.050Z,5.50
2022-11-22T00:14:08.049Z,5.50
2022-11-22T00:15:08.039Z,5.48
2022-11-22T00:16:08.025Z,5.50
2022-11-22T00:17:08.039Z,5.50
2022-11-22T00:18:07.995Z,5.47
2022-11-22T00:19:07.982Z,5.48
2022-11-22T00:20:07.972Z,5.50
2022-11-22T00:21:07.961Z,5.47
2022-11-22T00:22:07.974Z,5.47
2022-11-22T00:23:07.941Z,5.47
2022-11-22T00:24:07.936Z,5.47
2022-11-22T00:25:08.101Z,5.50
2022-11-22T00:26:07.902Z,5.48
2022-11-22T00:27:07.968Z,5.51
2022-11-22T00:28:07.899Z,5.51
2022-11-22T00:29:08.025Z,5.54
2022-11-22T00:30:07.871Z,5.54
2022-11-22T00:31:07.858Z,5.54
2022-11-22T00:32:07.835Z,5.56
2022-11-22T00:33:16.401Z,5.56
2022-11-22T00:34:07.821Z,5.61
2022-11-22T00:35:07.799Z,5.61
2022-11-22T00:36:07.805Z,5.62
2022-11-22T00:37:07.771Z,5.64
2022-11-22T00:38:07.763Z,5.65
2022-11-22T00:39:07.758Z,5.64
2022-11-22T00:40:07.752Z,5.62
2022-11-22T00:41:07.755Z,5.64
2022-11-22T00:42:07.717Z,5.64
2022-11-22T00:43:07.708Z,5.66
2022-11-22T00:44:07.711Z,5.68
2022-11-22T00:45:07.714Z,5.69
2022-11-22T00:46:07.690Z,5.72
2022-11-22T00:47:07.667Z,5.71
2022-11-22T00:48:07.686Z,5.71
2022-11-22T00:49:07.650Z,5.72
2022-11-22T00:50:07.656Z,5.75
2022-11-22T00:51:07.637Z,5.75
2022-11-22T00:52:07.636Z,5.76
2022-11-22T00:53:07.631Z,5.79
2022-11-22T00:54:07.615Z,5.80
2022-11-22T00:55:07.585Z,5.80
2022-11-22T00:56:07.720Z,5.80
2022-11-22T00:57:07.582Z,5.79
2022-11-22T00:58:07.551Z,5.79
2022-11-22T00:59:07.607Z,5.79
2022-11-22T01:00:07.527Z,5.79
2022-11-22T01:01:07.583Z,5.75
2022-11-22T01:02:07.509Z,5.79
2022-11-22T01:03:07.520Z,5.80
2022-11-22T01:04:07.544Z,5.80
2022-11-22T01:05:07.483Z,5.83
2022-11-22T01:06:07.468Z,5.82
2022-11-22T01:07:07.486Z,5.75
2022-11-22T01:08:07.443Z,5.73
2022-11-22T01:09:07.493Z,5.72
2022-11-22T01:10:07.444Z,5.75
2022-11-22T01:11:07.421Z,5.75
2022-11-22T01:12:07.410Z,5.76
2022-11-22T01:13:07.388Z,5.76
2022-11-22T01:14:07.406Z,5.75
2022-11-22T01:15:07.375Z,5.76
2022-11-22T01:16:07.383Z,5.79
2022-11-22T01:17:07.345Z,5.79
2022-11-22T01:18:07.335Z,5.80
2022-11-22T01:19:07.322Z,5.80
2022-11-22T01:20:07.329Z,5.83
2022-11-22T01:21:07.296Z,5.83
2022-11-22T01:22:07.285Z,5.87
2022-11-22T01:23:07.293Z,5.86
2022-11-22T01:24:07.265Z,5.83
2022-11-22T01:25:07.271Z,5.86
2022-11-22T01:26:07.279Z,5.87
2022-11-22T01:27:07.244Z,5.87
2022-11-22T01:28:07.223Z,5.86
2022-11-22T01:29:07.209Z,5.84
2022-11-22T01:30:07.215Z,5.86
2022-11-22T01:31:07.211Z,5.89
2022-11-22T01:32:07.198Z,5.91
2022-11-22T01:33:13.686Z,5.89
2022-11-22T01:34:07.169Z,5.91
2022-11-22T01:35:07.167Z,5.91
2022-11-22T01:36:07.166Z,5.93
2022-11-22T01:37:07.146Z,5.94
2022-11-22T01:38:07.135Z,5.94
2022-11-22T01:39:07.104Z,5.94
2022-11-22T01:40:07.092Z,5.97
2022-11-22T01:41:07.119Z,5.98
2022-11-22T01:42:07.098Z,5.98
2022-11-22T01:43:07.069Z,5.97
2022-11-22T01:44:07.064Z,5.97
2022-11-22T01:45:07.038Z,5.98
2022-11-22T01:46:07.067Z,5.99
2022-11-22T01:47:07.031Z,5.99
2022-11-22T01:48:07.021Z,5.99
2022-11-22T01:49:06.989Z,6.01
2022-11-22T01:50:06.999Z,6.02
2022-11-22T01:51:07.000Z,6.05
2022-11-22T01:52:06.963Z,6.05
2022-11-22T01:53:06.950Z,6.04
2022-11-22T01:54:06.938Z,6.07
2022-11-22T01:55:06.933Z,6.08
2022-11-22T01:56:06.929Z,6.08
2022-11-22T01:57:06.945Z,6.11
2022-11-22T01:58:06.907Z,6.12
2022-11-22T01:59:06.900Z,6.14
2022-11-22T02:00:06.879Z,6.14
2022-11-22T02:01:07.042Z,6.14
2022-11-22T02:02:06.877Z,6.16
2022-11-22T02:03:06.838Z,6.16
2022-11-22T02:04:06.845Z,6.19
2022-11-22T02:05:06.853Z,6.16
2022-11-22T02:06:06.825Z,6.19
2022-11-22T02:07:06.850Z,6.17
2022-11-22T02:08:06.793Z,6.17
2022-11-22T02:09:06.794Z,6.17
2022-11-22T02:10:06.788Z,6.20
2022-11-22T02:11:06.767Z,6.22
2022-11-22T02:12:06.781Z,6.22
2022-11-22T02:13:06.733Z,6.24
2022-11-22T02:14:06.725Z,6.27
2022-11-22T02:15:06.704Z,6.27
2022-11-22T02:16:06.717Z,6.26
2022-11-22T02:17:06.717Z,6.27
2022-11-22T02:18:06.692Z,6.27
2022-11-22T02:19:06.672Z,6.26
2022-11-22T02:20:06.649Z,6.24
2022-11-22T02:21:06.657Z,6.19
2022-11-22T02:22:06.654Z,6.17
2022-11-22T02:23:06.674Z,6.16
2022-11-22T02:24:06.605Z,6.14
2022-11-22T02:25:06.632Z,6.12
2022-11-22T02:26:06.603Z,6.09
2022-11-22T02:27:07.531Z,6.09
2022-11-22T02:28:06.609Z,6.11
2022-11-22T02:29:06.576Z,6.16
2022-11-22T02:30:06.557Z,6.17
2022-11-22T02:31:06.560Z,6.16
2022-11-22T02:32:06.527Z,6.17
2022-11-22T02:33:15.031Z,6.17
2022-11-22T02:34:06.506Z,6.16
2022-11-22T02:35:06.541Z,6.16
2022-11-22T02:36:06.482Z,6.16
2022-11-22T02:37:06.461Z,6.17
2022-11-22T02:38:06.483Z,6.19
2022-11-22T02:39:06.437Z,6.22
2022-11-22T02:40:06.437Z,6.24
2022-11-22T02:41:06.471Z,6.26
2022-11-22T02:42:06.416Z,6.19
2022-11-22T02:43:06.395Z,6.17
2022-11-22T02:44:06.393Z,6.16
2022-11-22T02:45:06.374Z,6.16
2022-11-22T02:46:06.380Z,6.17
2022-11-22T02:47:06.374Z,6.12
2022-11-22T02:48:06.348Z,6.07
2022-11-22T02:49:06.344Z,6.07
2022-11-22T02:50:06.333Z,6.01
2022-11-22T02:51:06.310Z,5.98
2022-11-22T02:52:06.295Z,5.99
2022-11-22T02:53:06.308Z,5.98
2022-11-22T02:54:06.321Z,5.98
2022-11-22T02:55:06.278Z,5.94
2022-11-22T02:56:06.263Z,5.89
2022-11-22T02:57:06.259Z,5.89
2022-11-22T02:58:06.238Z,5.87
2022-11-22T02:59:06.245Z,5.89
2022-11-22T03:00:06.234Z,5.87
2022-11-22T03:01:06.289Z,5.87
2022-11-22T03:02:06.202Z,5.90
2022-11-22T03:03:06.188Z,5.89
2022-11-22T03:04:06.197Z,5.89
2022-11-22T03:05:06.162Z,5.89
2022-11-22T03:06:06.147Z,5.89
2022-11-22T03:07:06.195Z,5.89
2022-11-22T03:08:06.146Z,5.90
2022-11-22T03:09:06.124Z,5.90
2022-11-22T03:10:06.116Z,5.89
2022-11-22T03:11:06.121Z,5.90
2022-11-22T03:12:06.099Z,5.91
2022-11-22T03:13:06.123Z,5.91
2022-11-22T03:14:06.093Z,5.91
2022-11-22T03:15:06.056Z,5.91
2022-11-22T03:16:06.044Z,5.93
2022-11-22T03:17:06.041Z,5.94
2022-11-22T03:18:06.067Z,5.94
2022-11-22T03:19:06.028Z,5.94
2022-11-22T03:20:05.995Z,5.97
2022-11-22T03:21:05.985Z,5.97
2022-11-22T03:22:05.983Z,5.97
2022-11-22T03:23:05.958Z,5.98
2022-11-22T03:24:05.969Z,5.97
2022-11-22T03:25:05.939Z,5.97
2022-11-22T03:26:05.930Z,5.98
2022-11-22T03:27:05.931Z,5.98
2022-11-22T03:28:05.929Z,6.01
2022-11-22T03:29:05.920Z,6.02
2022-11-22T03:30:05.903Z,6.04
2022-11-22T03:31:05.872Z,6.02
2022-11-22T03:32:05.878Z,6.01
2022-11-22T03:33:14.406Z,5.99
2022-11-22T03:34:05.848Z,6.02
2022-11-22T03:35:05.855Z,6.01
2022-11-22T03:36:05.821Z,5.99
2022-11-22T03:37:05.817Z,5.99
2022-11-22T03:38:05.808Z,5.99
2022-11-22T03:39:05.790Z,5.97
2022-11-22T03:40:05.806Z,5.97
2022-11-22T03:41:05.769Z,5.97
2022-11-22T03:42:05.766Z,5.97
2022-11-22T03:43:05.750Z,5.99
2022-11-22T03:44:05.736Z,6.01
2022-11-22T03:45:05.743Z,6.01
2022-11-22T03:46:05.738Z,6.02
2022-11-22T03:47:05.704Z,6.04
2022-11-22T03:48:05.709Z,6.02
2022-11-22T03:49:05.683Z,6.05
2022-11-22T03:50:05.683Z,6.04
2022-11-22T03:51:05.691Z,6.05
2022-11-22T03:52:05.662Z,6.07
2022-11-22T03:53:05.640Z,6.08
2022-11-22T03:54:05.651Z,6.09
2022-11-22T03:55:05.619Z,6.11
2022-11-22T03:56:05.629Z,6.12
2022-11-22T03:57:05.602Z,6.12
2022-11-22T03:58:05.607Z,6.16
2022-11-22T03:59:05.573Z,6.19
2022-11-22T04:00:05.570Z,6.24
2022-11-22T04:01:05.622Z,6.24
2022-11-22T04:02:05.622Z,6.27
2022-11-22T04:03:05.541Z,6.27
2022-11-22T04:04:05.590Z,6.28
2022-11-22T04:05:05.536Z,6.30
2022-11-22T04:06:05.523Z,6.30
2022-11-22T04:07:05.560Z,6.31
2022-11-22T04:08:05.483Z,6.35
2022-11-22T04:09:05.525Z,6.33
2022-11-22T04:10:05.472Z,6.35
2022-11-22T04:11:05.449Z,6.33
2022-11-22T04:12:05.439Z,6.35
2022-11-22T04:13:05.441Z,6.36
2022-11-22T04:14:05.422Z,6.36
2022-11-22T04:15:05.519Z,6.39
2022-11-22T04:16:05.643Z,6.41
2022-11-22T04:17:05.457Z,6.42
2022-11-22T04:18:06.310Z,6.42
2022-11-22T04:19:06.311Z,6.46
2022-11-22T04:20:05.389Z,6.45
2022-11-22T04:21:05.531Z,6.45
2022-11-22T04:22:07.069Z,6.46
2022-11-22T04:23:05.424Z,6.46
2022-11-22T04:24:06.467Z,6.46
2022-11-22T04:25:06.436Z,6.48
2022-11-22T04:26:06.390Z,6.51
2022-11-22T04:27:05.532Z,6.52
2022-11-22T04:28:05.385Z,6.56
2022-11-22T04:29:10.624Z,6.57
2022-11-22T04:30:05.875Z,6.57
2022-11-22T04:31:06.242Z,6.57
2022-11-22T04:32:06.416Z,6.60
2022-11-22T04:33:11.741Z,6.60
2022-11-22T04:34:05.206Z,6.60
2022-11-22T04:35:05.189Z,6.60
2022-11-22T04:36:08.939Z,6.60
2022-11-22T04:37:05.207Z,6.60
2022-11-22T04:38:05.170Z,6.60
2022-11-22T04:39:05.157Z,6.62
2022-11-22T04:40:05.129Z,6.63
2022-11-22T04:41:05.153Z,6.64
2022-11-22T04:42:05.182Z,6.66
2022-11-22T04:43:05.171Z,6.67
2022-11-22T04:44:05.121Z,6.67
2022-11-22T04:45:05.133Z,6.72
2022-11-22T04:46:05.110Z,6.74
2022-11-22T04:47:05.122Z,6.74
2022-11-22T04:48:05.055Z,6.75
2022-11-22T04:49:05.054Z,6.74
2022-11-22T04:50:05.663Z,6.72
2022-11-22T04:51:05.040Z,6.72
2022-11-22T04:52:05.055Z,6.70
2022-11-22T04:53:05.014Z,6.74
2022-11-22T04:54:04.985Z,6.74
2022-11-22T04:55:04.991Z,6.75
2022-11-22T04:56:04.967Z,6.77
2022-11-22T04:57:04.985Z,6.78
2022-11-22T04:58:04.956Z,6.78
2022-11-22T04:59:04.941Z,6.79
2022-11-22T05:00:04.925Z,6.79
2022-11-22T05:01:04.962Z,6.81
2022-11-22T05:02:04.917Z,6.84
2022-11-22T05:03:04.906Z,6.87
2022-11-22T05:04:04.875Z,6.88
2022-11-22T05:05:04.868Z,6.89
2022-11-22T05:06:04.865Z,6.89
2022-11-22T05:07:04.943Z,6.89
2022-11-22T05:08:04.855Z,6.89
2022-11-22T05:09:04.831Z,6.92
2022-11-22T05:10:04.813Z,6.92
2022-11-22T05:11:04.806Z,6.88
2022-11-22T05:12:04.794Z,6.88
2022-11-22T05:13:04.844Z,6.87
2022-11-22T05:14:04.782Z,6.89
2022-11-22T05:15:04.757Z,6.88
2022-11-22T05:16:04.762Z,6.87
2022-11-22T05:17:04.751Z,6.85
2022-11-22T05:18:04.752Z,6.87
2022-11-22T05:19:04.725Z,6.81
2022-11-22T05:20:04.742Z,6.78
2022-11-22T05:21:04.698Z,6.78
2022-11-22T05:22:04.690Z,6.77
2022-11-22T05:23:04.680Z,6.74
2022-11-22T05:24:04.687Z,6.72
2022-11-22T05:25:04.662Z,6.67
2022-11-22T05:26:04.657Z,6.66
2022-11-22T05:27:04.685Z,6.63
2022-11-22T05:28:04.621Z,6.62
2022-11-22T05:29:04.638Z,6.63
2022-11-22T05:30:04.620Z,6.64
2022-11-22T05:31:04.632Z,6.63
2022-11-22T05:32:04.585Z,6.63
2022-11-22T05:33:13.076Z,6.59
2022-11-22T05:34:04.592Z,6.59
2022-11-22T05:35:04.554Z,6.57
2022-11-22T05:36:04.546Z,6.60
2022-11-22T05:37:04.573Z,6.59
2022-11-22T05:38:04.519Z,6.59
2022-11-22T05:39:04.540Z,6.57
2022-11-22T05:40:04.495Z,6.59
2022-11-22T05:41:04.505Z,6.57
2022-11-22T05:42:04.476Z,6.56
2022-11-22T05:43:04.485Z,6.56
2022-11-22T05:44:04.473Z,6.54
2022-11-22T05:45:04.459Z,6.54
2022-11-22T05:46:04.430Z,6.51
2022-11-22T05:47:04.505Z,6.49
2022-11-22T05:48:04.414Z,6.45
2022-11-22T05:49:04.415Z,6.45
2022-11-22T05:50:04.422Z,6.39
2022-11-22T05:51:04.401Z,6.38
2022-11-22T05:52:04.381Z,6.38
2022-11-22T05:53:04.369Z,6.36
2022-11-22T05:54:04.353Z,6.36
2022-11-22T05:55:04.362Z,6.36
2022-11-22T05:56:04.378Z,6.38
2022-11-22T05:57:04.337Z,6.38
2022-11-22T05:58:04.311Z,6.41
2022-11-22T05:59:04.316Z,6.41
2022-11-22T06:00:04.293Z,6.42
2022-11-22T06:01:04.313Z,6.42
2022-11-22T06:02:04.328Z,6.41
2022-11-22T06:03:04.314Z,6.41
2022-11-22T06:04:04.270Z,6.41
2022-11-22T06:05:04.236Z,6.41
2022-11-22T06:06:04.239Z,6.39
2022-11-22T06:07:09.543Z,6.41
2022-11-22T06:08:04.276Z,6.41
2022-11-22T06:09:04.210Z,6.38
2022-11-22T06:10:04.180Z,6.38
2022-11-22T06:11:04.187Z,6.38
2022-11-22T06:12:04.182Z,6.38
2022-11-22T06:13:04.203Z,6.38
2022-11-22T06:14:04.147Z,6.39
2022-11-22T06:15:04.126Z,6.36
2022-11-22T06:16:04.275Z,6.36
2022-11-22T06:17:04.114Z,6.36
2022-11-22T06:18:04.106Z,6.35
2022-11-22T06:19:04.089Z,6.33
2022-11-22T06:20:06.481Z,6.31
2022-11-22T06:21:04.088Z,6.33
2022-11-22T06:22:04.087Z,6.35
2022-11-22T06:23:04.052Z,6.35
2022-11-22T06:24:04.037Z,6.33
2022-11-22T06:25:04.038Z,6.31
2022-11-22T06:26:04.088Z,6.27
2022-11-22T06:27:04.067Z,6.27
2022-11-22T06:28:03.991Z,6.26
2022-11-22T06:29:03.987Z,6.24
2022-11-22T06:30:03.967Z,6.26
2022-11-22T06:31:03.962Z,6.27
2022-11-22T06:32:04.366Z,6.26
2022-11-22T06:33:03.948Z,6.26
2022-11-22T06:34:03.928Z,6.27
2022-11-22T06:35:03.930Z,6.27
2022-11-22T06:36:03.908Z,6.27
2022-11-22T06:37:03.925Z,6.26
2022-11-22T06:38:03.883Z,6.26
2022-11-22T06:39:04.095Z,6.26
2022-11-22T06:40:04.746Z,6.26
2022-11-22T06:41:03.867Z,6.26
2022-11-22T06:42:03.865Z,6.26
2022-11-22T06:43:03.839Z,6.24
2022-11-22T06:44:03.880Z,6.24
2022-11-22T06:45:03.813Z,6.24
2022-11-22T06:46:03.810Z,6.22
2022-11-22T06:47:03.816Z,6.22
2022-11-22T06:48:03.817Z,6.20
2022-11-22T06:49:03.775Z,6.17
2022-11-22T06:50:03.756Z,6.19
2022-11-22T06:51:03.752Z,6.17
2022-11-22T06:52:03.854Z,6.16
2022-11-22T06:53:03.761Z,6.14
2022-11-22T06:54:03.731Z,6.14
2022-11-22T06:55:07.996Z,6.11
2022-11-22T06:56:03.699Z,6.09
2022-11-22T06:57:03.690Z,6.07
2022-11-22T06:58:03.715Z,6.07
2022-11-22T06:59:03.684Z,6.05
2022-11-22T07:00:03.653Z,6.05
2022-11-22T07:01:03.843Z,6.09
2022-11-22T07:02:06.704Z,6.12
2022-11-22T07:03:03.644Z,6.14
2022-11-22T07:04:03.607Z,6.12
2022-11-22T07:05:24.616Z,6.14
2022-11-22T07:06:03.595Z,6.17
2022-11-22T07:07:03.680Z,6.16
2022-11-22T07:08:10.425Z,6.17
2022-11-22T07:09:03.574Z,6.17
2022-11-22T07:10:03.556Z,6.17
2022-11-22T07:11:03.557Z,6.19
2022-11-22T07:12:03.536Z,6.16
2022-11-22T07:13:03.580Z,6.14
2022-11-22T07:14:08.261Z,6.09
2022-11-22T07:15:03.505Z,6.09
2022-11-22T07:16:03.488Z,6.08
2022-11-22T07:17:03.499Z,6.07
2022-11-22T07:18:03.490Z,6.08
2022-11-22T07:19:03.481Z,6.05
2022-11-22T07:20:03.458Z,6.04
2022-11-22T07:21:08.002Z,6.05
2022-11-22T07:22:03.437Z,6.05
2022-11-22T07:23:03.480Z,6.07
2022-11-22T07:24:03.425Z,6.07
2022-11-22T07:25:03.393Z,6.05
2022-11-22T07:26:03.420Z,6.02
2022-11-22T07:27:03.380Z,5.99
2022-11-22T07:28:03.352Z,5.99
2022-11-22T07:29:03.366Z,5.97
2022-11-22T07:30:03.338Z,5.97
2022-11-22T07:31:03.344Z,5.97
2022-11-22T07:32:03.319Z,5.94
2022-11-22T07:33:11.845Z,5.91
2022-11-22T07:34:03.312Z,5.91
2022-11-22T07:35:03.302Z,5.91
2022-11-22T07:36:03.272Z,5.89
2022-11-22T07:37:08.727Z,5.89
2022-11-22T07:38:03.279Z,5.89
2022-11-22T07:39:03.242Z,5.89
2022-11-22T07:40:03.234Z,5.87
2022-11-22T07:41:03.218Z,5.84
2022-11-22T07:42:03.212Z,5.89
2022-11-22T07:43:03.226Z,5.89
2022-11-22T07:44:03.198Z,5.90
2022-11-22T07:45:03.185Z,5.91
2022-11-22T07:46:03.166Z,5.93
2022-11-22T07:47:03.167Z,5.94
2022-11-22T07:48:03.193Z,5.94
2022-11-22T07:49:03.149Z,5.91
2022-11-22T07:50:03.153Z,5.91
2022-11-22T07:51:03.116Z,5.89
2022-11-22T07:52:03.124Z,5.86
2022-11-22T07:53:03.103Z,5.87
2022-11-22T07:54:03.084Z,5.86
2022-11-22T07:55:03.076Z,5.89
2022-11-22T07:56:03.063Z,5.89
2022-11-22T07:57:03.054Z,5.87
2022-11-22T07:58:03.047Z,5.90
2022-11-22T07:59:03.038Z,5.89
2022-11-22T08:00:03.018Z,5.90
2022-11-22T08:01:03.125Z,5.87
2022-11-22T08:02:03.163Z,5.86
2022-11-22T08:03:03.000Z,5.86
2022-11-22T08:04:02.978Z,5.86
2022-11-22T08:05:02.966Z,5.86
2022-11-22T08:06:02.972Z,5.87
2022-11-22T08:07:03.006Z,5.87
2022-11-22T08:08:02.958Z,5.87
2022-11-22T08:09:02.945Z,5.87
2022-11-22T08:10:02.933Z,5.86
2022-11-22T08:11:02.924Z,5.86
2022-11-22T08:12:02.910Z,5.89
2022-11-22T08:13:02.890Z,5.87
2022-11-22T08:14:02.872Z,5.89
2022-11-22T08:15:02.858Z,5.89
2022-11-22T08:16:05.507Z,5.87
2022-11-22T08:17:02.846Z,5.90
2022-11-22T08:18:02.850Z,5.87
2022-11-22T08:19:02.843Z,5.87
2022-11-22T08:20:02.831Z,5.86
2022-11-22T08:21:02.807Z,5.89
2022-11-22T08:22:02.788Z,5.90
2022-11-22T08:23:02.778Z,5.90
2022-11-22T08:24:02.779Z,5.89
2022-11-22T08:25:02.792Z,5.89
2022-11-22T08:26:02.793Z,5.91
2022-11-22T08:27:03.791Z,5.90
2022-11-22T08:28:02.759Z,5.91
2022-11-22T08:29:02.780Z,5.93
2022-11-22T08:30:02.713Z,5.93
2022-11-22T08:31:02.723Z,5.94
2022-11-22T08:32:02.687Z,5.98
2022-11-22T08:33:02.671Z,5.97
2022-11-22T08:34:02.691Z,5.98
2022-11-22T08:35:02.666Z,6.01
2022-11-22T08:36:02.658Z,6.01
2022-11-22T08:37:02.625Z,6.04
2022-11-22T08:38:02.675Z,6.05
2022-11-22T08:39:02.605Z,6.07
2022-11-22T08:40:02.622Z,6.09
2022-11-22T08:41:02.596Z,6.12
2022-11-22T08:42:02.591Z,6.14
2022-11-22T08:43:02.581Z,6.14
2022-11-22T08:44:02.683Z,6.17
2022-11-22T08:45:02.563Z,6.17
2022-11-22T08:46:02.549Z,6.20
2022-11-22T08:47:02.545Z,6.24
2022-11-22T08:48:02.518Z,6.22
2022-11-22T08:49:02.505Z,6.28
2022-11-22T08:50:02.501Z,6.31
2022-11-22T08:51:02.521Z,6.35
2022-11-22T08:52:02.476Z,6.41
2022-11-22T08:53:02.504Z,6.42
2022-11-22T08:54:02.453Z,6.44
2022-11-22T08:55:02.456Z,6.45
2022-11-22T08:56:02.430Z,6.51
2022-11-22T08:57:02.438Z,6.59
2022-11-22T08:58:02.419Z,6.69
2022-11-22T08:59:02.448Z,6.69
2022-11-22T09:00:02.515Z,6.74
2022-11-22T09:01:02.472Z,6.77
2022-11-22T09:02:02.427Z,6.84
2022-11-22T09:03:02.388Z,6.92
2022-11-22T09:04:02.349Z,7.00
2022-11-22T09:05:02.346Z,7.07
2022-11-22T09:09:30.058Z,7.42
2022-11-22T09:10:02.284Z,7.53
2022-11-22T09:11:02.272Z,7.60
2022-11-22T09:12:02.256Z,7.67
2022-11-22T09:13:02.264Z,7.75
2022-11-22T09:14:02.235Z,7.77
2022-11-22T09:15:02.225Z,7.91
2022-11-22T09:16:02.214Z,7.98
2022-11-22T09:17:02.205Z,8.08
2022-11-22T09:18:02.205Z,8.12
2022-11-22T09:19:02.177Z,8.10
2022-11-22T09:20:02.176Z,8.10
2022-11-22T09:21:02.157Z,8.10
2022-11-22T09:22:02.165Z,8.18
2022-11-22T09:23:02.177Z,8.26
2022-11-22T09:24:02.150Z,8.30
2022-11-22T09:25:02.111Z,8.36
2022-11-22T09:26:02.110Z,8.41
2022-11-22T09:27:02.091Z,8.48
2022-11-22T09:28:02.156Z,8.52
2022-11-22T09:29:02.084Z,8.53
2022-11-22T09:30:02.877Z,8.56
2022-11-22T09:31:02.037Z,8.60
2022-11-22T09:32:02.034Z,8.55
2022-11-22T09:33:08.587Z,8.48
2022-11-22T09:34:02.026Z,8.52
2022-11-22T09:35:02.000Z,8.52
2022-11-22T09:36:02.036Z,8.58
2022-11-22T09:37:01.985Z,8.66
2022-11-22T09:38:01.976Z,8.73
2022-11-22T09:39:01.947Z,8.76
2022-11-22T09:40:01.967Z,8.82
2022-11-22T09:41:01.932Z,8.89
2022-11-22T09:42:01.934Z,8.97
2022-11-22T09:43:01.927Z,9.06
2022-11-22T09:44:01.921Z,9.22
2022-11-22T09:45:01.897Z,9.26
2022-11-22T09:46:01.894Z,9.29
2022-11-22T09:47:01.862Z,9.34
2022-11-22T09:48:05.381Z,9.40
2022-11-22T09:49:01.854Z,9.40
2022-11-22T09:50:01.825Z,9.36
2022-11-22T09:51:01.825Z,9.34
2022-11-22T09:52:01.838Z,9.37
2022-11-22T09:53:01.791Z,9.41
2022-11-22T09:54:01.826Z,9.47
2022-11-22T09:55:01.766Z,9.50
2022-11-22T09:56:01.775Z,9.59
2022-11-22T09:57:01.742Z,9.72
2022-11-22T09:58:01.748Z,9.83
2022-11-22T09:59:01.725Z,9.89
2022-11-22T10:00:01.751Z,9.84
2022-11-22T10:01:01.729Z,9.86
2022-11-22T10:02:16.944Z,9.83
2022-11-22T10:03:01.685Z,9.82
2022-11-22T10:04:01.685Z,9.83
2022-11-22T10:05:01.676Z,9.76
2022-11-22T10:06:01.659Z,9.77
2022-11-22T10:07:01.670Z,9.83
2022-11-22T10:08:01.622Z,9.95
2022-11-22T10:09:01.624Z,10.09
2022-11-22T10:10:01.626Z,10.17
2022-11-22T10:11:01.595Z,10.20
2022-11-22T10:12:01.582Z,10.28
2022-11-22T10:13:01.569Z,10.33
2022-11-22T10:14:01.597Z,10.35
2022-11-22T10:15:01.563Z,10.31
2022-11-22T10:16:01.540Z,10.31
2022-11-22T10:17:01.523Z,10.41
2022-11-22T10:18:01.568Z,10.56
2022-11-22T10:19:01.512Z,10.63
2022-11-22T10:20:01.529Z,10.51
2022-11-22T10:21:01.480Z,10.44
2022-11-22T10:22:01.467Z,10.51
2022-11-22T10:23:01.465Z,10.60
2022-11-22T10:24:01.470Z,10.72
2022-11-22T10:25:01.514Z,10.90
2022-11-22T10:26:01.426Z,11.05
2022-11-22T10:27:01.413Z,11.11
2022-11-22T10:28:01.419Z,11.15
2022-11-22T10:29:01.402Z,11.07
2022-11-22T10:30:01.402Z,11.04
2022-11-22T10:31:01.364Z,11.04
2022-11-22T10:32:01.358Z,11.11
2022-11-22T10:33:08.897Z,11.05
2022-11-22T10:34:01.349Z,10.99
2022-11-22T10:35:01.369Z,11.00
2022-11-22T10:36:01.330Z,11.10
2022-11-22T10:37:01.339Z,11.19
2022-11-22T10:38:01.303Z,11.30
2022-11-22T10:39:01.287Z,11.37
2022-11-22T10:40:01.317Z,11.43
2022-11-22T10:41:01.274Z,11.37
2022-11-22T10:42:01.279Z,11.47
2022-11-22T10:43:01.353Z,11.47
2022-11-22T10:44:01.231Z,11.54
2022-11-22T10:45:01.219Z,11.60
2022-11-22T10:46:01.315Z,11.65
2022-11-22T10:47:01.211Z,11.54
2022-11-22T10:48:01.210Z,11.59
2022-11-22T10:49:01.207Z,11.65
2022-11-22T10:50:01.192Z,11.73
2022-11-22T10:51:01.165Z,11.81
2022-11-22T10:52:01.159Z,11.80
2022-11-22T10:53:01.127Z,11.73
2022-11-22T10:54:03.747Z,11.77
2022-11-22T10:55:01.110Z,11.84
2022-11-22T10:56:01.123Z,11.88
2022-11-22T10:57:01.132Z,11.86
2022-11-22T10:58:01.089Z,11.90
2022-11-22T10:59:01.066Z,11.77
2022-11-22T11:00:01.056Z,11.78
2022-11-22T11:01:01.169Z,11.81
2022-11-22T11:02:01.072Z,11.87
2022-11-22T11:03:01.244Z,12.02
2022-11-22T11:04:01.032Z,12.07
2022-11-22T11:05:00.994Z,12.02
2022-11-22T11:06:21.616Z,12.02
2022-11-22T11:07:16.403Z,12.09
2022-11-22T11:08:21.972Z,12.24
2022-11-22T11:10:11.188Z,12.22
2022-11-22T11:11:00.940Z,12.27
2022-11-22T11:12:00.934Z,12.02
2022-11-22T11:13:00.923Z,11.95
2022-11-22T11:14:00.932Z,12.00
2022-11-22T11:15:00.894Z,11.88
2022-11-22T11:16:00.894Z,12.02
2022-11-22T11:17:00.863Z,12.12
2022-11-22T11:18:00.873Z,12.15
2022-11-22T11:19:00.838Z,12.07
2022-11-22T11:20:00.836Z,11.88
2022-11-22T11:21:00.817Z,11.73
2022-11-22T11:22:00.825Z,11.66
2022-11-22T11:23:16.631Z,11.45
2022-11-22T11:24:00.813Z,11.30
2022-11-22T11:25:00.773Z,11.18
2022-11-22T11:26:00.776Z,11.08
2022-11-22T11:27:00.767Z,11.02
2022-11-22T11:28:00.775Z,10.97
2022-11-22T11:29:00.758Z,10.96
2022-11-22T11:30:00.749Z,10.89
2022-11-22T11:31:00.732Z,10.86
2022-11-22T11:32:00.733Z,10.76
2022-11-22T11:33:08.224Z,10.63
2022-11-22T11:34:00.697Z,10.44
2022-11-22T11:35:00.678Z,10.26
2022-11-22T11:36:00.655Z,10.17
2022-11-22T11:37:00.641Z,10.13
2022-11-22T11:38:00.633Z,10.05
2022-11-22T11:39:00.631Z,10.05
2022-11-22T11:40:00.650Z,10.01
2022-11-22T11:41:00.790Z,9.92
2022-11-22T11:42:00.594Z,9.89
2022-11-22T11:43:00.578Z,9.84
2022-11-22T11:44:00.579Z,9.83
2022-11-22T11:45:00.575Z,9.87
2022-11-22T11:46:00.575Z,9.86
2022-11-22T11:47:00.559Z,9.89
2022-11-22T11:48:00.527Z,9.97
2022-11-22T11:49:00.584Z,10.04
2022-11-22T11:50:00.508Z,10.10
2022-11-22T11:51:00.542Z,10.16
2022-11-22T11:52:00.505Z,10.20
2022-11-22T11:53:00.478Z,10.23
2022-11-22T11:54:00.475Z,10.26
2022-11-22T11:55:00.445Z,10.26
2022-11-22T11:56:00.431Z,10.23
2022-11-22T11:57:00.455Z,10.20
2022-11-22T11:58:00.435Z,10.17
2022-11-22T11:59:00.490Z,10.15
2022-11-22T12:00:00.399Z,10.17
2022-11-22T12:01:00.379Z,10.16
2022-11-22T12:02:00.437Z,10.12
2022-11-22T12:03:00.370Z,10.09
2022-11-22T12:04:00.372Z,10.02
2022-11-22T12:05:00.351Z,9.92
2022-11-22T12:06:00.340Z,9.89
2022-11-22T12:07:03.345Z,9.91
2022-11-22T12:08:00.536Z,9.89
2022-11-22T12:09:00.308Z,9.86
2022-11-22T12:10:00.313Z,9.82
2022-11-22T12:11:00.277Z,9.77
2022-11-22T12:12:00.291Z,9.73
2022-11-22T12:13:04.448Z,9.74
2022-11-22T12:15:15.239Z,9.84
2022-11-22T12:16:00.229Z,9.80
2022-11-22T12:17:00.219Z,9.79
2022-11-22T12:18:00.223Z,9.72
2022-11-22T12:19:00.201Z,9.65
2022-11-22T12:20:00.196Z,9.62
2022-11-22T12:21:00.167Z,9.61
2022-11-22T12:22:00.178Z,9.56
2022-11-22T12:23:00.185Z,9.50
2022-11-22T12:24:19.877Z,9.40
2022-11-22T12:25:30.538Z,9.36
2022-11-22T12:26:00.123Z,9.36
2022-11-22T12:27:00.113Z,9.40
2022-11-22T12:28:00.092Z,9.40
2022-11-22T12:29:00.107Z,9.39
2022-11-22T12:30:00.104Z,9.34
2022-11-22T12:31:00.052Z,9.32
2022-11-22T12:32:00.063Z,9.32
2022-11-22T12:33:07.566Z,9.28
2022-11-22T12:34:00.045Z,9.31
2022-11-22T12:35:00.024Z,9.31
2022-11-22T12:36:00.011Z,9.31
2022-11-22T12:36:59.987Z,9.31
2022-11-22T12:37:59.981Z,9.26
2022-11-22T12:38:59.989Z,9.26
2022-11-22T12:39:59.973Z,9.26
2022-11-22T12:40:59.978Z,9.23
2022-11-22T12:41:59.941Z,9.21
2022-11-22T12:42:59.920Z,9.18
2022-11-22T12:43:59.932Z,9.16
2022-11-22T12:44:59.912Z,9.14
2022-11-22T12:45:59.907Z,9.14
2022-11-22T12:46:59.878Z,9.16
2022-11-22T12:47:59.866Z,9.18
2022-11-22T12:48:59.875Z,9.22
2022-11-22T12:49:59.861Z,9.23
2022-11-22T12:50:59.863Z,9.23
2022-11-22T12:51:59.822Z,9.25
2022-11-22T12:52:59.808Z,9.23
2022-11-22T12:53:59.818Z,9.23
2022-11-22T12:54:59.797Z,9.23
2022-11-22T12:55:59.776Z,9.25
2022-11-22T12:56:59.813Z,9.25
2022-11-22T12:57:59.788Z,9.23
2022-11-22T12:58:59.775Z,9.23
2022-11-22T12:59:59.736Z,9.21
2022-11-22T13:00:59.766Z,9.19
2022-11-22T13:01:59.734Z,9.13
2022-11-22T13:02:59.698Z,9.11
2022-11-22T13:03:59.723Z,9.06
2022-11-22T13:04:59.738Z,9.06
2022-11-22T13:05:59.767Z,9.06
2022-11-22T13:06:59.686Z,9.06
2022-11-22T13:07:59.643Z,9.08
2022-11-22T13:09:03.778Z,9.06
2022-11-22T13:09:59.629Z,9.08
2022-11-22T13:10:59.628Z,9.08
2022-11-22T13:11:59.602Z,9.10
2022-11-22T13:12:59.603Z,9.10
2022-11-22T13:13:59.587Z,9.10
2022-11-22T13:14:59.563Z,9.11
2022-11-22T13:16:00.014Z,9.14
2022-11-22T13:16:59.575Z,9.11
2022-11-22T13:17:59.543Z,9.11
2022-11-22T13:18:59.524Z,9.10